sensor_id;sensor_type;location;lat;lon;timestamp;temperature;humidity
20881;DHT22;10600;53.096;8.802;2022-11-21T00:00:26;-1.50;99.90
20881;DHT22;10600;53.096;8.802;2022-11-21T00:01:28;-1.50;99.90
20881;DHT22;10600;53.096;8.802;2022-11-21T00:02:29;-1.50;99.90
20881;DHT22;10600;53.096;8.802;2022-11-21T00:03:30;-1.50;99.90
20881;DHT22;10600;53.096;8.802;2022-11-21T00:04:30;-1.50;99.90
20881;DHT22;10600;53.096;8.802;2022-11-21T00:05:32;-1.50;99.90
20881;DHT22;10600;53.096;8.802;2022-11-21T00:06:32;-1.50;99.90
20881;DHT22;10600;53.096;8.802;2022-11-21T00:07:33;-1.50;99.90
20881;DHT22;10600;53.096;8.802;2022-11-21T00:08:34;-1.50;99.90
20881;DHT22;10600;53.096;8.802;2022-11-21T00:09:35;-1.50;99.90
20881;DHT22;10600;53.096;8.802;2022-11-21T00:10:37;-1.60;99.90
20881;DHT22;10600;53.096;8.802;2022-11-21T00:11:38;-1.50;99.90
20881;DHT22;10600;53.096;8.802;2022-11-21T00:12:38;-1.60;99.90
20881;DHT22;10600;53.096;8.802;2022-11-21T00:13:39;-1.60;99.90
20881;DHT22;10600;53.096;8.802;2022-11-21T00:14:40;-1.60;99.90
20881;DHT22;10600;53.096;8.802;2022-11-21T00:15:41;-1.70;99.90
20881;DHT22;10600;53.096;8.802;2022-11-21T00:16:44;-1.70;99.90
20881;DHT22;10600;53.096;8.802;2022-11-21T00:17:45;-1.70;99.90
20881;DHT22;10600;53.096;8.802;2022-11-21T00:18:46;-1.80;99.90
20881;DHT22;10600;53.096;8.802;2022-11-21T00:19:46;-1.80;99.90
20881;DHT22;10600;53.096;8.802;2022-11-21T00:20:47;-1.80;99.90
20881;DHT22;10600;53.096;8.802;2022-11-21T00:21:48;-1.80;99.90
20881;DHT22;10600;53.096;8.802;2022-11-21T00:22:49;-1.80;99.90
20881;DHT22;10600;53.096;8.802;2022-11-21T00:23:51;-1.80;99.90
20881;DHT22;10600;53.096;8.802;2022-11-21T00:24:52;-1.80;99.90
20881;DHT22;10600;53.096;8.802;2022-11-21T00:25:52;-1.80;99.90
20881;DHT22;10600;53.096;8.802;2022-11-21T00:26:53;-1.90;99.90
20881;DHT22;10600;53.096;8.802;2022-11-21T00:27:54;-1.90;99.90
20881;DHT22;10600;53.096;8.802;2022-11-21T00:28:54;-1.90;99.90
20881;DHT22;10600;53.096;8.802;2022-11-21T00:29:55;-1.90;99.90
20881;DHT22;10600;53.096;8.802;2022-11-21T00:30:56;-1.90;99.90
20881;DHT22;10600;53.096;8.802;2022-11-21T00:31:56;-1.90;99.90
20881;DHT22;10600;53.096;8.802;2022-11-21T00:32:57;-1.90;99.90
20881;DHT22;10600;53.096;8.802;2022-11-21T00:33:58;-1.90;99.90
20881;DHT22;10600;53.096;8.802;2022-11-21T00:34:58;-1.90;99.90
20881;DHT22;10600;53.096;8.802;2022-11-21T00:36:05;-1.90;99.90
20881;DHT22;10600;53.096;8.802;2022-11-21T00:37:07;-1.90;99.90
20881;DHT22;10600;53.096;8.802;2022-11-21T00:38:07;-1.90;99.90
20881;DHT22;10600;53.096;8.802;2022-11-21T00:39:08;-1.90;99.90
20881;DHT22;10600;53.096;8.802;2022-11-21T00:40:09;-1.90;99.90
20881;DHT22;10600;53.096;8.802;2022-11-21T00:41:10;-1.90;99.90
20881;DHT22;10600;53.096;8.802;2022-11-21T00:42:10;-1.90;99.90
20881;DHT22;10600;53.096;8.802;2022-11-21T00:43:11;-1.80;99.90
20881;DHT22;10600;53.096;8.802;2022-11-21T00:44:12;-1.90;99.90
20881;DHT22;10600;53.096;8.802;2022-11-21T00:45:12;-1.90;99.90
20881;DHT22;10600;53.096;8.802;2022-11-21T00:46:13;-1.80;99.90
20881;DHT22;10600;53.096;8.802;2022-11-21T00:47:14;-1.80;99.90
20881;DHT22;10600;53.096;8.802;2022-11-21T00:48:14;-1.90;99.90
20881;DHT22;10600;53.096;8.802;2022-11-21T00:49:15;-1.80;99.90
20881;DHT22;10600;53.096;8.802;2022-11-21T00:50:16;-1.80;99.90
20881;DHT22;10600;53.096;8.802;2022-11-21T00:51:16;-1.80;99.90
20881;DHT22;10600;53.096;8.802;2022-11-21T00:52:17;-1.80;99.90
20881;DHT22;10600;53.096;8.802;2022-11-21T00:53:18;-1.80;99.90
20881;DHT22;10600;53.096;8.802;2022-11-21T00:54:18;-1.80;99.90
20881;DHT22;10600;53.096;8.802;2022-11-21T00:55:19;-1.80;99.90
20881;DHT22;10600;53.096;8.802;2022-11-21T00:56:20;-1.80;99.90
20881;DHT22;10600;53.096;8.802;2022-11-21T00:57:21;-1.80;99.90
20881;DHT22;10600;53.096;8.802;2022-11-21T00:58:22;-1.80;99.90
20881;DHT22;10600;53.096;8.802;2022-11-21T00:59:22;-1.80;99.90
20881;DHT22;10600;53.096;8.802;2022-11-21T01:00:23;-1.80;99.90
20881;DHT22;10600;53.096;8.802;2022-11-21T01:01:24;-1.80;99.90
20881;DHT22;10600;53.096;8.802;2022-11-21T01:02:24;-1.80;99.90
20881;DHT22;10600;53.096;8.802;2022-11-21T01:03:25;-1.80;99.90
20881;DHT22;10600;53.096;8.802;2022-11-21T01:04:32;-1.80;99.90
20881;DHT22;10600;53.096;8.802;2022-11-21T01:05:33;-1.80;99.90
20881;DHT22;10600;53.096;8.802;2022-11-21T01:06:36;-1.80;99.90
20881;DHT22;10600;53.096;8.802;2022-11-21T01:07:37;-1.80;99.90
20881;DHT22;10600;53.096;8.802;2022-11-21T01:08:41;-1.80;99.90
20881;DHT22;10600;53.096;8.802;2022-11-21T01:09:41;-1.80;99.90
20881;DHT22;10600;53.096;8.802;2022-11-21T01:10:42;-1.80;99.90
20881;DHT22;10600;53.096;8.802;2022-11-21T01:11:43;-1.80;99.90
20881;DHT22;10600;53.096;8.802;2022-11-21T01:12:43;-1.80;99.90
20881;DHT22;10600;53.096;8.802;2022-11-21T01:13:45;-1.80;99.90
20881;DHT22;10600;53.096;8.802;2022-11-21T01:14:46;-1.80;99.90
20881;DHT22;10600;53.096;8.802;2022-11-21T01:15:46;-1.80;99.90
20881;DHT22;10600;53.096;8.802;2022-11-21T01:16:47;-1.80;99.90
20881;DHT22;10600;53.096;8.802;2022-11-21T01:17:48;-1.90;99.90
20881;DHT22;10600;53.096;8.802;2022-11-21T01:18:49;-1.90;99.90
20881;DHT22;10600;53.096;8.802;2022-11-21T01:19:50;-1.80;99.90
20881;DHT22;10600;53.096;8.802;2022-11-21T01:20:50;-1.90;99.90
20881;DHT22;10600;53.096;8.802;2022-11-21T01:21:51;-1.80;99.90
20881;DHT22;10600;53.096;8.802;2022-11-21T01:22:52;-1.90;99.90
20881;DHT22;10600;53.096;8.802;2022-11-21T01:23:52;-1.80;99.90
20881;DHT22;10600;53.096;8.802;2022-11-21T01:24:53;-1.90;99.90
20881;DHT22;10600;53.096;8.802;2022-11-21T01:25:54;-1.90;99.90
20881;DHT22;10600;53.096;8.802;2022-11-21T01:26:54;-1.90;99.90
20881;DHT22;10600;53.096;8.802;2022-11-21T01:27:55;-1.90;99.90
20881;DHT22;10600;53.096;8.802;2022-11-21T01:28:56;-1.90;99.90
20881;DHT22;10600;53.096;8.802;2022-11-21T01:29:57;-1.90;99.90
20881;DHT22;10600;53.096;8.802;2022-11-21T01:31:05;-1.90;99.90
20881;DHT22;10600;53.096;8.802;2022-11-21T01:32:06;-1.90;99.90
20881;DHT22;10600;53.096;8.802;2022-11-21T01:33:07;-1.90;99.90
20881;DHT22;10600;53.096;8.802;2022-11-21T01:34:07;-1.90;99.90
20881;DHT22;10600;53.096;8.802;2022-11-21T01:35:08;-1.90;99.90
20881;DHT22;10600;53.096;8.802;2022-11-21T01:36:10;-1.90;99.90
20881;DHT22;10600;53.096;8.802;2022-11-21T01:37:11;-2.00;99.90
20881;DHT22;10600;53.096;8.802;2022-11-21T01:38:11;-2.00;99.90
20881;DHT22;10600;53.096;8.802;2022-11-21T01:39:12;-2.00;99.90
20881;DHT22;10600;53.096;8.802;2022-11-21T01:40:13;-2.00;99.90
20881;DHT22;10600;53.096;8.802;2022-11-21T01:41:17;-2.00;99.90
20881;DHT22;10600;53.096;8.802;2022-11-21T01:42:18;-2.00;99.90
20881;DHT22;10600;53.096;8.802;2022-11-21T01:43:19;-2.00;99.90
20881;DHT22;10600;53.096;8.802;2022-11-21T01:44:25;-2.00;99.90
20881;DHT22;10600;53.096;8.802;2022-11-21T01:46:08;-2.00;99.90
20881;DHT22;10600;53.096;8.802;2022-11-21T01:47:09;-2.00;99.90
20881;DHT22;10600;53.096;8.802;2022-11-21T01:48:10;-2.00;99.90
20881;DHT22;10600;53.096;8.802;2022-11-21T01:49:12;-2.00;99.90
20881;DHT22;10600;53.096;8.802;2022-11-21T01:50:15;-2.00;99.90
20881;DHT22;10600;53.096;8.802;2022-11-21T01:52:30;-2.00;99.90
20881;DHT22;10600;53.096;8.802;2022-11-21T01:53:32;-2.00;99.90
20881;DHT22;10600;53.096;8.802;2022-11-21T01:54:38;-2.00;99.90
20881;DHT22;10600;53.096;8.802;2022-11-21T01:55:40;-2.00;99.90
20881;DHT22;10600;53.096;8.802;2022-11-21T01:57:55;-2.00;99.90
20881;DHT22;10600;53.096;8.802;2022-11-21T01:58:58;-2.00;99.90
20881;DHT22;10600;53.096;8.802;2022-11-21T02:00:07;-2.00;99.90
20881;DHT22;10600;53.096;8.802;2022-11-21T02:01:10;-2.00;99.90
20881;DHT22;10600;53.096;8.802;2022-11-21T02:02:12;-2.00;99.90
20881;DHT22;10600;53.096;8.802;2022-11-21T02:03:17;-2.00;99.90
20881;DHT22;10600;53.096;8.802;2022-11-21T02:04:21;-2.10;99.90
20881;DHT22;10600;53.096;8.802;2022-11-21T02:05:27;-2.10;99.90
20881;DHT22;10600;53.096;8.802;2022-11-21T02:06:29;-2.10;99.90
20881;DHT22;10600;53.096;8.802;2022-11-21T02:07:35;-2.10;99.90
20881;DHT22;10600;53.096;8.802;2022-11-21T02:08:39;-2.10;99.90
20881;DHT22;10600;53.096;8.802;2022-11-21T02:09:45;-2.10;99.90
20881;DHT22;10600;53.096;8.802;2022-11-21T02:12:31;-2.20;99.90
20881;DHT22;10600;53.096;8.802;2022-11-21T02:13:33;-2.20;99.90
20881;DHT22;10600;53.096;8.802;2022-11-21T02:14:35;-2.20;99.90
20881;DHT22;10600;53.096;8.802;2022-11-21T02:15:36;-2.20;99.90
20881;DHT22;10600;53.096;8.802;2022-11-21T02:16:37;-2.20;99.90
20881;DHT22;10600;53.096;8.802;2022-11-21T02:17:38;-2.20;99.90
20881;DHT22;10600;53.096;8.802;2022-11-21T02:18:39;-2.20;99.90
20881;DHT22;10600;53.096;8.802;2022-11-21T02:20:06;-2.20;99.90
20881;DHT22;10600;53.096;8.802;2022-11-21T02:21:18;-2.20;99.90
20881;DHT22;10600;53.096;8.802;2022-11-21T02:22:34;-2.20;99.90
20881;DHT22;10600;53.096;8.802;2022-11-21T02:25:03;-2.20;99.90
20881;DHT22;10600;53.096;8.802;2022-11-21T02:26:03;-2.30;99.90
20881;DHT22;10600;53.096;8.802;2022-11-21T02:27:04;-2.30;99.90
20881;DHT22;10600;53.096;8.802;2022-11-21T02:28:07;-2.30;99.90
20881;DHT22;10600;53.096;8.802;2022-11-21T02:29:08;-2.30;99.90
20881;DHT22;10600;53.096;8.802;2022-11-21T02:30:10;-2.30;99.90
20881;DHT22;10600;53.096;8.802;2022-11-21T02:31:10;-2.40;99.90
20881;DHT22;10600;53.096;8.802;2022-11-21T02:32:21;-2.40;99.90
20881;DHT22;10600;53.096;8.802;2022-11-21T02:33:22;-2.40;99.90
20881;DHT22;10600;53.096;8.802;2022-11-21T02:34:22;-2.40;99.90
20881;DHT22;10600;53.096;8.802;2022-11-21T02:35:23;-2.40;99.90
20881;DHT22;10600;53.096;8.802;2022-11-21T02:36:41;-2.40;99.90
20881;DHT22;10600;53.096;8.802;2022-11-21T02:37:44;-2.40;99.90
20881;DHT22;10600;53.096;8.802;2022-11-21T02:38:45;-2.40;99.90
20881;DHT22;10600;53.096;8.802;2022-11-21T02:39:46;-2.40;99.90
20881;DHT22;10600;53.096;8.802;2022-11-21T02:41:16;-2.40;99.90
20881;DHT22;10600;53.096;8.802;2022-11-21T02:42:36;-2.40;99.90
20881;DHT22;10600;53.096;8.802;2022-11-21T02:43:48;-2.40;99.90
20881;DHT22;10600;53.096;8.802;2022-11-21T02:44:53;-2.40;99.90
20881;DHT22;10600;53.096;8.802;2022-11-21T02:45:55;-2.40;99.90
20881;DHT22;10600;53.096;8.802;2022-11-21T02:46:56;-2.40;99.90
20881;DHT22;10600;53.096;8.802;2022-11-21T02:47:56;-2.40;99.90
20881;DHT22;10600;53.096;8.802;2022-11-21T02:48:57;-2.40;99.90
20881;DHT22;10600;53.096;8.802;2022-11-21T02:50:18;-2.40;99.90
20881;DHT22;10600;53.096;8.802;2022-11-21T02:51:19;-2.50;99.90
20881;DHT22;10600;53.096;8.802;2022-11-21T02:52:20;-2.50;99.90
20881;DHT22;10600;53.096;8.802;2022-11-21T02:53:20;-2.50;99.90
20881;DHT22;10600;53.096;8.802;2022-11-21T02:54:21;-2.60;99.90
20881;DHT22;10600;53.096;8.802;2022-11-21T02:55:23;-2.60;99.90
20881;DHT22;10600;53.096;8.802;2022-11-21T02:56:24;-2.50;99.90
20881;DHT22;10600;53.096;8.802;2022-11-21T02:57:24;-2.60;99.90
20881;DHT22;10600;53.096;8.802;2022-11-21T02:58:25;-2.60;99.90
20881;DHT22;10600;53.096;8.802;2022-11-21T02:59:26;-2.60;99.90
20881;DHT22;10600;53.096;8.802;2022-11-21T03:00:26;-2.60;99.90
20881;DHT22;10600;53.096;8.802;2022-11-21T03:01:27;-2.60;99.90
20881;DHT22;10600;53.096;8.802;2022-11-21T03:02:27;-2.60;99.90
20881;DHT22;10600;53.096;8.802;2022-11-21T03:03:28;-2.60;99.90
20881;DHT22;10600;53.096;8.802;2022-11-21T03:04:29;-2.70;99.90
20881;DHT22;10600;53.096;8.802;2022-11-21T03:05:30;-2.60;99.90
20881;DHT22;10600;53.096;8.802;2022-11-21T03:06:30;-2.60;99.90
20881;DHT22;10600;53.096;8.802;2022-11-21T03:07:31;-2.60;99.90
20881;DHT22;10600;53.096;8.802;2022-11-21T03:08:32;-2.60;99.90
20881;DHT22;10600;53.096;8.802;2022-11-21T03:09:33;-2.60;99.90
20881;DHT22;10600;53.096;8.802;2022-11-21T03:10:34;-2.60;99.90
20881;DHT22;10600;53.096;8.802;2022-11-21T03:11:34;-2.60;99.90
20881;DHT22;10600;53.096;8.802;2022-11-21T03:12:36;-2.60;99.90
20881;DHT22;10600;53.096;8.802;2022-11-21T03:13:37;-2.60;99.90
20881;DHT22;10600;53.096;8.802;2022-11-21T03:14:37;-2.70;99.90
20881;DHT22;10600;53.096;8.802;2022-11-21T03:15:38;-2.70;99.90
20881;DHT22;10600;53.096;8.802;2022-11-21T03:16:39;-2.80;99.90
20881;DHT22;10600;53.096;8.802;2022-11-21T03:17:40;-2.80;99.90
20881;DHT22;10600;53.096;8.802;2022-11-21T03:18:41;-2.80;99.90
20881;DHT22;10600;53.096;8.802;2022-11-21T03:19:41;-2.90;99.90
20881;DHT22;10600;53.096;8.802;2022-11-21T03:20:42;-2.90;99.90
20881;DHT22;10600;53.096;8.802;2022-11-21T03:21:43;-2.90;99.90
20881;DHT22;10600;53.096;8.802;2022-11-21T03:22:43;-2.90;99.90
20881;DHT22;10600;53.096;8.802;2022-11-21T03:23:44;-2.90;99.90
20881;DHT22;10600;53.096;8.802;2022-11-21T03:24:45;-3.00;99.90
20881;DHT22;10600;53.096;8.802;2022-11-21T03:25:46;-2.90;99.90
20881;DHT22;10600;53.096;8.802;2022-11-21T03:26:46;-2.90;99.90
20881;DHT22;10600;53.096;8.802;2022-11-21T03:27:51;-2.90;99.90
20881;DHT22;10600;53.096;8.802;2022-11-21T03:28:52;-2.90;99.90
20881;DHT22;10600;53.096;8.802;2022-11-21T03:29:53;-2.90;99.90
20881;DHT22;10600;53.096;8.802;2022-11-21T03:30:54;-2.90;99.90
20881;DHT22;10600;53.096;8.802;2022-11-21T03:31:54;-2.90;99.90
20881;DHT22;10600;53.096;8.802;2022-11-21T03:32:56;-2.90;99.90
20881;DHT22;10600;53.096;8.802;2022-11-21T03:33:57;-2.90;99.90
20881;DHT22;10600;53.096;8.802;2022-11-21T03:34:57;-2.90;99.90
20881;DHT22;10600;53.096;8.802;2022-11-21T03:35:58;-2.90;99.90
20881;DHT22;10600;53.096;8.802;2022-11-21T03:36:58;-2.90;99.90
20881;DHT22;10600;53.096;8.802;2022-11-21T03:37:59;-2.90;99.90
20881;DHT22;10600;53.096;8.802;2022-11-21T03:39:01;-2.90;99.90
20881;DHT22;10600;53.096;8.802;2022-11-21T03:40:02;-3.00;99.90
20881;DHT22;10600;53.096;8.802;2022-11-21T03:41:04;-3.00;99.90
20881;DHT22;10600;53.096;8.802;2022-11-21T03:42:05;-3.00;99.90
20881;DHT22;10600;53.096;8.802;2022-11-21T03:43:06;-3.00;99.90
20881;DHT22;10600;53.096;8.802;2022-11-21T03:44:09;-3.00;99.90
20881;DHT22;10600;53.096;8.802;2022-11-21T03:45:09;-2.90;99.90
20881;DHT22;10600;53.096;8.802;2022-11-21T03:46:10;-3.00;99.90
20881;DHT22;10600;53.096;8.802;2022-11-21T03:47:11;-3.00;99.90
20881;DHT22;10600;53.096;8.802;2022-11-21T03:48:11;-2.90;99.90
20881;DHT22;10600;53.096;8.802;2022-11-21T03:49:13;-2.90;99.90
20881;DHT22;10600;53.096;8.802;2022-11-21T03:50:13;-2.90;99.90
20881;DHT22;10600;53.096;8.802;2022-11-21T03:51:18;-2.90;99.90
20881;DHT22;10600;53.096;8.802;2022-11-21T03:52:19;-2.90;99.90
20881;DHT22;10600;53.096;8.802;2022-11-21T03:53:19;-2.90;99.90
20881;DHT22;10600;53.096;8.802;2022-11-21T03:54:20;-2.90;99.90
20881;DHT22;10600;53.096;8.802;2022-11-21T03:55:21;-2.90;99.90
20881;DHT22;10600;53.096;8.802;2022-11-21T03:56:22;-2.90;99.90
20881;DHT22;10600;53.096;8.802;2022-11-21T03:57:22;-2.90;99.90
20881;DHT22;10600;53.096;8.802;2022-11-21T03:58:23;-2.90;99.90
20881;DHT22;10600;53.096;8.802;2022-11-21T03:59:24;-2.90;99.90
20881;DHT22;10600;53.096;8.802;2022-11-21T04:00:25;-2.80;99.90
20881;DHT22;10600;53.096;8.802;2022-11-21T04:01:26;-2.80;99.90
20881;DHT22;10600;53.096;8.802;2022-11-21T04:02:27;-2.80;99.90
20881;DHT22;10600;53.096;8.802;2022-11-21T04:03:27;-2.80;99.90
20881;DHT22;10600;53.096;8.802;2022-11-21T04:04:28;-2.80;99.90
20881;DHT22;10600;53.096;8.802;2022-11-21T04:05:29;-2.80;99.90
20881;DHT22;10600;53.096;8.802;2022-11-21T04:06:29;-2.80;99.90
20881;DHT22;10600;53.096;8.802;2022-11-21T04:07:33;-2.80;99.90
20881;DHT22;10600;53.096;8.802;2022-11-21T04:08:34;-2.80;99.90
20881;DHT22;10600;53.096;8.802;2022-11-21T04:09:35;-2.80;99.90
20881;DHT22;10600;53.096;8.802;2022-11-21T04:10:35;-2.70;99.90
20881;DHT22;10600;53.096;8.802;2022-11-21T04:11:36;-2.70;99.90
20881;DHT22;10600;53.096;8.802;2022-11-21T04:12:37;-2.60;99.90
20881;DHT22;10600;53.096;8.802;2022-11-21T04:13:37;-2.60;99.90
20881;DHT22;10600;53.096;8.802;2022-11-21T04:14:38;-2.60;99.90
20881;DHT22;10600;53.096;8.802;2022-11-21T04:15:42;-2.60;99.90
20881;DHT22;10600;53.096;8.802;2022-11-21T04:16:42;-2.50;99.90
20881;DHT22;10600;53.096;8.802;2022-11-21T04:17:43;-2.50;99.90
20881;DHT22;10600;53.096;8.802;2022-11-21T04:18:44;-2.50;99.90
20881;DHT22;10600;53.096;8.802;2022-11-21T04:19:44;-2.40;99.90
20881;DHT22;10600;53.096;8.802;2022-11-21T04:20:45;-2.40;99.90
20881;DHT22;10600;53.096;8.802;2022-11-21T04:21:45;-2.40;99.90
20881;DHT22;10600;53.096;8.802;2022-11-21T04:22:46;-2.40;99.90
20881;DHT22;10600;53.096;8.802;2022-11-21T04:23:47;-2.40;99.90
20881;DHT22;10600;53.096;8.802;2022-11-21T04:24:47;-2.30;99.90
20881;DHT22;10600;53.096;8.802;2022-11-21T04:25:48;-2.30;99.90
20881;DHT22;10600;53.096;8.802;2022-11-21T04:26:49;-2.30;99.90
20881;DHT22;10600;53.096;8.802;2022-11-21T04:27:49;-2.30;99.90
20881;DHT22;10600;53.096;8.802;2022-11-21T04:28:50;-2.30;99.90
20881;DHT22;10600;53.096;8.802;2022-11-21T04:29:50;-2.30;99.90
20881;DHT22;10600;53.096;8.802;2022-11-21T04:30:51;-2.30;99.90
20881;DHT22;10600;53.096;8.802;2022-11-21T04:31:52;-2.30;99.90
20881;DHT22;10600;53.096;8.802;2022-11-21T04:32:53;-2.30;99.90
20881;DHT22;10600;53.096;8.802;2022-11-21T04:33:54;-2.30;99.90
20881;DHT22;10600;53.096;8.802;2022-11-21T04:34:54;-2.30;99.90
20881;DHT22;10600;53.096;8.802;2022-11-21T04:35:55;-2.30;99.90
20881;DHT22;10600;53.096;8.802;2022-11-21T04:36:56;-2.30;99.90
20881;DHT22;10600;53.096;8.802;2022-11-21T04:37:59;-2.20;99.90
20881;DHT22;10600;53.096;8.802;2022-11-21T04:39:00;-2.30;99.90
20881;DHT22;10600;53.096;8.802;2022-11-21T04:40:01;-2.20;99.90
20881;DHT22;10600;53.096;8.802;2022-11-21T04:41:01;-2.20;99.90
20881;DHT22;10600;53.096;8.802;2022-11-21T04:42:02;-2.20;99.90
20881;DHT22;10600;53.096;8.802;2022-11-21T04:43:03;-2.20;99.90
20881;DHT22;10600;53.096;8.802;2022-11-21T04:44:03;-2.20;99.90
20881;DHT22;10600;53.096;8.802;2022-11-21T04:45:05;-2.20;99.90
20881;DHT22;10600;53.096;8.802;2022-11-21T04:46:06;-2.20;99.90
20881;DHT22;10600;53.096;8.802;2022-11-21T04:47:06;-2.20;99.90
20881;DHT22;10600;53.096;8.802;2022-11-21T04:48:07;-2.20;99.90
20881;DHT22;10600;53.096;8.802;2022-11-21T04:49:08;-2.20;99.90
20881;DHT22;10600;53.096;8.802;2022-11-21T04:50:10;-2.20;99.90
20881;DHT22;10600;53.096;8.802;2022-11-21T04:51:11;-2.20;99.90
20881;DHT22;10600;53.096;8.802;2022-11-21T04:52:11;-2.20;99.90
20881;DHT22;10600;53.096;8.802;2022-11-21T04:53:12;-2.20;99.90
20881;DHT22;10600;53.096;8.802;2022-11-21T04:54:13;-2.20;99.90
20881;DHT22;10600;53.096;8.802;2022-11-21T04:55:14;-2.20;99.90
20881;DHT22;10600;53.096;8.802;2022-11-21T04:56:14;-2.20;99.90
20881;DHT22;10600;53.096;8.802;2022-11-21T04:57:15;-2.20;99.90
20881;DHT22;10600;53.096;8.802;2022-11-21T04:58:16;-2.30;99.90
20881;DHT22;10600;53.096;8.802;2022-11-21T04:59:17;-2.30;99.90
20881;DHT22;10600;53.096;8.802;2022-11-21T05:00:17;-2.20;99.90
20881;DHT22;10600;53.096;8.802;2022-11-21T05:01:18;-2.20;99.90
20881;DHT22;10600;53.096;8.802;2022-11-21T05:02:19;-2.30;99.90
20881;DHT22;10600;53.096;8.802;2022-11-21T05:03:20;-2.30;99.90
20881;DHT22;10600;53.096;8.802;2022-11-21T05:04:20;-2.30;99.90
20881;DHT22;10600;53.096;8.802;2022-11-21T05:05:21;-2.30;99.90
20881;DHT22;10600;53.096;8.802;2022-11-21T05:06:21;-2.30;99.90
20881;DHT22;10600;53.096;8.802;2022-11-21T05:07:22;-2.30;99.90
20881;DHT22;10600;53.096;8.802;2022-11-21T05:08:23;-2.30;99.90
20881;DHT22;10600;53.096;8.802;2022-11-21T05:09:23;-2.30;99.90
20881;DHT22;10600;53.096;8.802;2022-11-21T05:10:24;-2.30;99.90
20881;DHT22;10600;53.096;8.802;2022-11-21T05:11:24;-2.30;99.90
20881;DHT22;10600;53.096;8.802;2022-11-21T05:12:44;-2.30;99.90
20881;DHT22;10600;53.096;8.802;2022-11-21T05:14:03;-2.30;99.90
20881;DHT22;10600;53.096;8.802;2022-11-21T05:15:04;-2.30;99.90
20881;DHT22;10600;53.096;8.802;2022-11-21T05:16:05;-2.30;99.90
20881;DHT22;10600;53.096;8.802;2022-11-21T05:17:06;-2.30;99.90
20881;DHT22;10600;53.096;8.802;2022-11-21T05:18:06;-2.40;99.90
20881;DHT22;10600;53.096;8.802;2022-11-21T05:19:08;-2.30;99.90
20881;DHT22;10600;53.096;8.802;2022-11-21T05:20:09;-2.40;99.90
20881;DHT22;10600;53.096;8.802;2022-11-21T05:21:10;-2.40;99.90
20881;DHT22;10600;53.096;8.802;2022-11-21T05:22:11;-2.40;99.90
20881;DHT22;10600;53.096;8.802;2022-11-21T05:23:11;-2.40;99.90
20881;DHT22;10600;53.096;8.802;2022-11-21T05:24:12;-2.40;99.90
20881;DHT22;10600;53.096;8.802;2022-11-21T05:25:13;-2.40;99.90
20881;DHT22;10600;53.096;8.802;2022-11-21T05:26:13;-2.30;99.90
20881;DHT22;10600;53.096;8.802;2022-11-21T05:27:14;-2.40;99.90
20881;DHT22;10600;53.096;8.802;2022-11-21T05:28:15;-2.40;99.90
20881;DHT22;10600;53.096;8.802;2022-11-21T05:29:16;-2.40;99.90
20881;DHT22;10600;53.096;8.802;2022-11-21T05:30:16;-2.40;99.90
20881;DHT22;10600;53.096;8.802;2022-11-21T05:31:17;-2.40;99.90
20881;DHT22;10600;53.096;8.802;2022-11-21T05:32:18;-2.30;99.90
20881;DHT22;10600;53.096;8.802;2022-11-21T05:33:18;-2.40;99.90
20881;DHT22;10600;53.096;8.802;2022-11-21T05:34:19;-2.30;99.90
20881;DHT22;10600;53.096;8.802;2022-11-21T05:35:20;-2.40;99.90
20881;DHT22;10600;53.096;8.802;2022-11-21T05:36:21;-2.40;99.90
20881;DHT22;10600;53.096;8.802;2022-11-21T05:37:21;-2.40;99.90
20881;DHT22;10600;53.096;8.802;2022-11-21T05:38:22;-2.40;99.90
20881;DHT22;10600;53.096;8.802;2022-11-21T05:39:23;-2.40;99.90
20881;DHT22;10600;53.096;8.802;2022-11-21T05:40:24;-2.40;99.90
20881;DHT22;10600;53.096;8.802;2022-11-21T05:41:25;-2.40;99.90
20881;DHT22;10600;53.096;8.802;2022-11-21T05:42:26;-2.50;99.90
20881;DHT22;10600;53.096;8.802;2022-11-21T05:43:55;-2.50;99.90
20881;DHT22;10600;53.096;8.802;2022-11-21T05:44:56;-2.50;99.90
20881;DHT22;10600;53.096;8.802;2022-11-21T05:45:57;-2.50;99.90
20881;DHT22;10600;53.096;8.802;2022-11-21T05:46:57;-2.50;99.90
20881;DHT22;10600;53.096;8.802;2022-11-21T05:47:58;-2.50;99.90
20881;DHT22;10600;53.096;8.802;2022-11-21T05:48:58;-2.50;99.90
20881;DHT22;10600;53.096;8.802;2022-11-21T05:49:59;-2.50;99.90
20881;DHT22;10600;53.096;8.802;2022-11-21T05:51:00;-2.60;99.90
20881;DHT22;10600;53.096;8.802;2022-11-21T05:52:00;-2.60;99.90
20881;DHT22;10600;53.096;8.802;2022-11-21T05:53:02;-2.60;99.90
20881;DHT22;10600;53.096;8.802;2022-11-21T05:54:04;-2.60;99.90
20881;DHT22;10600;53.096;8.802;2022-11-21T05:55:05;-2.60;99.90
20881;DHT22;10600;53.096;8.802;2022-11-21T05:56:10;-2.60;99.90
20881;DHT22;10600;53.096;8.802;2022-11-21T05:57:11;-2.60;99.90
20881;DHT22;10600;53.096;8.802;2022-11-21T05:58:13;-2.60;99.90
20881;DHT22;10600;53.096;8.802;2022-11-21T05:59:14;-2.60;99.90
20881;DHT22;10600;53.096;8.802;2022-11-21T06:00:15;-2.60;99.90
20881;DHT22;10600;53.096;8.802;2022-11-21T06:01:15;-2.60;99.90
20881;DHT22;10600;53.096;8.802;2022-11-21T06:02:36;-2.70;99.90
20881;DHT22;10600;53.096;8.802;2022-11-21T06:03:55;-2.70;99.90
20881;DHT22;10600;53.096;8.802;2022-11-21T06:04:56;-2.70;99.90
20881;DHT22;10600;53.096;8.802;2022-11-21T06:06:10;-2.70;99.90
20881;DHT22;10600;53.096;8.802;2022-11-21T06:07:11;-2.70;99.90
20881;DHT22;10600;53.096;8.802;2022-11-21T06:08:12;-2.70;99.90
20881;DHT22;10600;53.096;8.802;2022-11-21T06:09:12;-2.70;99.90
20881;DHT22;10600;53.096;8.802;2022-11-21T06:10:13;-2.70;99.90
20881;DHT22;10600;53.096;8.802;2022-11-21T06:11:15;-2.70;99.90
20881;DHT22;10600;53.096;8.802;2022-11-21T06:12:16;-2.70;99.90
20881;DHT22;10600;53.096;8.802;2022-11-21T06:13:17;-2.70;99.90
20881;DHT22;10600;53.096;8.802;2022-11-21T06:14:23;-2.70;99.90
20881;DHT22;10600;53.096;8.802;2022-11-21T06:15:24;-2.80;99.90
20881;DHT22;10600;53.096;8.802;2022-11-21T06:16:24;-2.80;99.90
20881;DHT22;10600;53.096;8.802;2022-11-21T06:17:25;-2.80;99.90
20881;DHT22;10600;53.096;8.802;2022-11-21T06:18:26;-2.80;99.90
20881;DHT22;10600;53.096;8.802;2022-11-21T06:19:27;-2.80;99.90
20881;DHT22;10600;53.096;8.802;2022-11-21T06:20:27;-2.80;99.90
20881;DHT22;10600;53.096;8.802;2022-11-21T06:21:28;-2.80;99.90
20881;DHT22;10600;53.096;8.802;2022-11-21T06:22:29;-2.90;99.90
20881;DHT22;10600;53.096;8.802;2022-11-21T06:23:30;-2.90;99.90
20881;DHT22;10600;53.096;8.802;2022-11-21T06:24:31;-2.90;99.90
20881;DHT22;10600;53.096;8.802;2022-11-21T06:25:31;-2.90;99.90
20881;DHT22;10600;53.096;8.802;2022-11-21T06:26:32;-2.90;99.90
20881;DHT22;10600;53.096;8.802;2022-11-21T06:27:32;-2.90;99.90
20881;DHT22;10600;53.096;8.802;2022-11-21T06:28:39;-2.90;99.90
20881;DHT22;10600;53.096;8.802;2022-11-21T06:29:40;-2.90;99.90
20881;DHT22;10600;53.096;8.802;2022-11-21T06:30:41;-3.00;99.90
20881;DHT22;10600;53.096;8.802;2022-11-21T06:31:42;-2.90;99.90
20881;DHT22;10600;53.096;8.802;2022-11-21T06:32:42;-3.00;99.90
20881;DHT22;10600;53.096;8.802;2022-11-21T06:33:44;-3.00;99.90
20881;DHT22;10600;53.096;8.802;2022-11-21T06:34:45;-3.00;99.90
20881;DHT22;10600;53.096;8.802;2022-11-21T06:35:45;-3.00;99.90
20881;DHT22;10600;53.096;8.802;2022-11-21T06:36:46;-3.00;99.90